createdAt,value
2022-12-19T00:00:02.298Z,34.50
2022-12-19T00:01:22.834Z,33.30
2022-12-19T00:02:26.121Z,32.00
2022-12-19T00:03:28.760Z,32.42
2022-12-19T00:04:31.191Z,32.72
2022-12-19T00:05:37.782Z,29.27
2022-12-19T00:06:41.913Z,29.35
2022-12-19T00:07:48.749Z,29.77
2022-12-19T00:08:52.635Z,29.27
2022-12-19T00:09:54.942Z,30.40
2022-12-19T00:11:00.323Z,29.30
2022-12-19T00:12:02.991Z,29.70
2022-12-19T00:13:05.344Z,28.23
2022-12-19T00:14:10.193Z,29.20
2022-12-19T00:15:12.514Z,27.30
2022-12-19T00:16:19.062Z,27.38
2022-12-19T00:17:21.502Z,27.23
2022-12-19T00:18:23.830Z,27.73
2022-12-19T00:19:26.190Z,28.73
2022-12-19T00:20:28.769Z,25.95
2022-12-19T00:21:34.695Z,26.52
2022-12-19T00:22:37.486Z,26.08
2022-12-19T00:23:40.486Z,26.00
2022-12-19T00:24:42.911Z,24.10
2022-12-19T00:25:45.260Z,24.77
2022-12-19T00:26:48.317Z,25.95
2022-12-19T00:27:50.654Z,25.83
2022-12-19T00:28:55.825Z,24.13
2022-12-19T00:30:00.017Z,23.05
2022-12-19T00:31:03.016Z,24.63
2022-12-19T00:32:05.469Z,23.73
2022-12-19T00:33:07.861Z,22.83
2022-12-19T00:34:10.702Z,23.73
2022-12-19T00:35:15.589Z,23.60
2022-12-19T00:36:23.442Z,22.55
2022-12-19T00:37:25.810Z,22.90
2022-12-19T00:38:30.178Z,22.52
2022-12-19T00:39:32.523Z,22.35
2022-12-19T00:40:34.901Z,21.98
2022-12-19T00:41:41.621Z,23.27
2022-12-19T00:42:48.669Z,22.48
2022-12-19T00:44:02.332Z,22.27
2022-12-19T00:45:07.356Z,20.25
2022-12-19T00:46:12.608Z,22.15
2022-12-19T00:47:15.938Z,21.00
2022-12-19T00:48:18.521Z,20.55
2022-12-19T00:49:21.994Z,20.20
2022-12-19T00:50:24.417Z,20.65
2022-12-19T00:51:29.000Z,20.23
2022-12-19T00:52:31.295Z,19.52
2022-12-19T00:53:35.531Z,19.52
2022-12-19T00:54:38.653Z,19.67
2022-12-19T00:55:41.215Z,18.65
2022-12-19T00:56:44.576Z,19.00
2022-12-19T00:57:47.205Z,19.55
2022-12-19T00:58:50.306Z,18.33
2022-12-19T00:59:52.593Z,18.77
2022-12-19T01:00:55.033Z,17.75
2022-12-19T01:01:57.781Z,19.30
2022-12-19T01:03:01.216Z,19.20
2022-12-19T01:05:30.868Z,20.00
2022-12-19T01:06:33.671Z,18.50
2022-12-19T01:07:37.450Z,18.65
2022-12-19T01:08:40.044Z,17.48
2022-12-19T01:09:42.395Z,17.92
2022-12-19T01:10:46.666Z,17.95
2022-12-19T01:12:25.283Z,16.15
2022-12-19T01:13:32.525Z,17.70
2022-12-19T01:14:35.678Z,15.73
2022-12-19T01:15:40.582Z,17.65
2022-12-19T01:16:42.908Z,16.05
2022-12-19T01:17:45.417Z,16.25
2022-12-19T01:18:47.742Z,16.70
2022-12-19T01:19:50.069Z,16.65
2022-12-19T01:20:52.523Z,17.00
2022-12-19T01:21:54.962Z,16.17
2022-12-19T01:22:58.885Z,15.40
2022-12-19T01:24:03.961Z,16.75
2022-12-19T01:25:06.741Z,17.08
2022-12-19T01:26:09.108Z,15.02
2022-12-19T01:27:11.435Z,15.40
2022-12-19T01:28:15.301Z,15.10
2022-12-19T01:29:19.130Z,16.20
2022-12-19T01:30:23.270Z,15.13
2022-12-19T01:31:27.009Z,15.48
2022-12-19T01:32:30.999Z,15.80
2022-12-19T01:33:35.762Z,15.80
2022-12-19T01:34:39.746Z,15.65
2022-12-19T01:35:43.248Z,16.50
2022-12-19T01:36:47.012Z,14.57
2022-12-19T01:37:51.128Z,14.65
2022-12-19T01:38:56.702Z,15.40
2022-12-19T01:39:59.020Z,15.65
2022-12-19T01:41:01.846Z,14.52
2022-12-19T01:42:19.612Z,14.35
2022-12-19T01:43:28.655Z,15.23
2022-12-19T01:44:31.978Z,15.23
2022-12-19T01:45:43.563Z,16.17
2022-12-19T01:46:48.602Z,15.30
2022-12-19T01:47:53.955Z,15.35
2022-12-19T01:48:57.398Z,14.27
2022-12-19T01:50:01.327Z,13.88
2022-12-19T01:51:19.743Z,14.40
2022-12-19T01:52:23.712Z,14.30
2022-12-19T01:53:30.182Z,13.35
2022-12-19T01:54:36.755Z,13.98
2022-12-19T01:55:41.089Z,14.23
2022-12-19T01:56:47.194Z,15.38
2022-12-19T01:57:49.623Z,14.30
2022-12-19T01:59:02.421Z,13.48
2022-12-19T02:00:12.513Z,13.70
2022-12-19T02:01:17.894Z,13.73
2022-12-19T02:02:26.616Z,13.68
2022-12-19T02:03:31.885Z,13.75
2022-12-19T02:04:34.844Z,13.52
2022-12-19T02:05:39.072Z,14.18
2022-12-19T02:06:42.952Z,13.73
2022-12-19T02:07:46.599Z,12.82
2022-12-19T02:08:49.367Z,12.77
2022-12-19T02:09:56.985Z,12.90
2022-12-19T02:11:03.536Z,13.10
2022-12-19T02:12:07.772Z,13.38
2022-12-19T02:13:12.755Z,12.15
2022-12-19T02:14:16.667Z,12.23
2022-12-19T02:15:20.884Z,13.90
2022-12-19T02:16:33.942Z,13.27
2022-12-19T02:17:52.770Z,13.10
2022-12-19T02:19:12.411Z,13.68
2022-12-19T02:20:26.477Z,11.80
2022-12-19T02:21:54.545Z,12.63
2022-12-19T02:23:00.564Z,11.75
2022-12-19T02:24:26.668Z,13.20
2022-12-19T02:25:56.828Z,12.05
2022-12-19T02:27:30.255Z,12.98
2022-12-19T02:29:12.285Z,11.82
2022-12-19T02:30:35.738Z,12.13
2022-12-19T02:32:03.802Z,12.95
2022-12-19T02:33:17.407Z,12.20
2022-12-19T02:34:53.079Z,12.23
2022-12-19T02:36:05.259Z,12.50
2022-12-19T02:37:12.636Z,12.65
2022-12-19T02:38:27.010Z,12.73
2022-12-19T02:39:55.197Z,13.02
2022-12-19T02:41:05.383Z,12.77
2022-12-19T02:42:11.634Z,13.25
2022-12-19T02:43:15.745Z,13.60
2022-12-19T02:44:28.757Z,12.77
2022-12-19T02:45:35.804Z,12.93
2022-12-19T02:46:38.605Z,13.07
2022-12-19T02:47:42.353Z,13.07
2022-12-19T02:48:45.588Z,12.80
2022-12-19T02:49:48.635Z,13.10
2022-12-19T02:50:51.917Z,12.77
2022-12-19T02:51:54.727Z,12.88
2022-12-19T02:52:57.956Z,12.68
2022-12-19T02:54:00.353Z,13.30
2022-12-19T02:55:09.554Z,11.55
2022-12-19T02:56:28.556Z,13.32
2022-12-19T02:57:49.925Z,12.68
2022-12-19T02:58:58.169Z,13.77
2022-12-19T03:00:07.865Z,13.07
2022-12-19T03:01:40.196Z,12.02
2022-12-19T03:03:15.491Z,12.50
2022-12-19T03:04:40.179Z,12.70
2022-12-19T03:06:27.389Z,11.68
2022-12-19T03:07:34.108Z,12.48
2022-12-19T03:09:08.554Z,12.07
2022-12-19T03:10:38.898Z,12.27
2022-12-19T03:11:42.550Z,12.13
2022-12-19T03:12:57.542Z,11.98
2022-12-19T03:14:05.714Z,12.63
2022-12-19T03:15:11.948Z,12.32
2022-12-19T03:16:15.164Z,11.68
2022-12-19T03:17:20.729Z,11.80
2022-12-19T03:18:23.809Z,11.48
2022-12-19T03:19:26.226Z,12.57
2022-12-19T03:20:49.716Z,11.55
2022-12-19T03:21:52.870Z,12.10
2022-12-19T03:22:55.205Z,12.52
2022-12-19T03:23:58.715Z,11.38
2022-12-19T03:25:01.727Z,11.65
2022-12-19T03:26:19.634Z,11.27
2022-12-19T03:27:28.406Z,11.27
2022-12-19T03:28:42.776Z,12.68
2022-12-19T03:29:54.904Z,12.52
2022-12-19T03:30:59.691Z,11.20
2022-12-19T03:32:07.082Z,12.73
2022-12-19T03:33:11.893Z,11.23
2022-12-19T03:34:25.264Z,11.65
2022-12-19T03:35:31.686Z,11.25
2022-12-19T03:36:41.922Z,12.43
2022-12-19T03:37:46.703Z,12.48
2022-12-19T03:38:49.844Z,11.40
2022-12-19T03:39:57.972Z,11.82
2022-12-19T03:41:02.547Z,10.90
2022-12-19T03:42:25.299Z,10.70
2022-12-19T03:43:29.853Z,10.82
2022-12-19T03:44:35.527Z,11.50
2022-12-19T03:45:59.332Z,11.05
2022-12-19T03:47:11.346Z,11.32
2022-12-19T03:48:38.114Z,11.23
2022-12-19T03:49:40.688Z,11.57
2022-12-19T03:51:04.597Z,11.57
2022-12-19T03:52:22.198Z,11.07
2022-12-19T03:53:42.919Z,11.82
2022-12-19T03:55:12.603Z,10.95
2022-12-19T03:56:46.113Z,11.18
2022-12-19T03:58:12.090Z,10.25
2022-12-19T03:59:25.207Z,11.10
2022-12-19T04:00:28.416Z,11.93
2022-12-19T04:01:33.876Z,11.95
2022-12-19T04:02:38.617Z,11.10
2022-12-19T04:03:41.103Z,11.23
2022-12-19T04:04:51.455Z,10.60
2022-12-19T04:05:54.799Z,11.52
2022-12-19T04:06:58.396Z,10.77
2022-12-19T04:08:07.979Z,11.48
2022-12-19T04:09:10.865Z,10.93
2022-12-19T04:10:19.240Z,10.90
2022-12-19T04:11:22.436Z,10.43
2022-12-19T04:12:33.239Z,10.80
2022-12-19T04:13:43.825Z,11.25
2022-12-19T04:14:47.121Z,27.13
2022-12-19T04:16:18.468Z,368.65
2022-12-19T04:17:50.958Z,81.45
2022-12-19T04:18:59.500Z,88.85
2022-12-19T04:20:16.977Z,74.15
2022-12-19T04:21:25.836Z,60.45
2022-12-19T04:22:50.909Z,54.08
2022-12-19T04:24:00.587Z,51.47
2022-12-19T04:25:11.277Z,44.53
2022-12-19T04:26:14.847Z,39.63
2022-12-19T04:27:18.334Z,39.20
2022-12-19T04:28:26.865Z,40.20
2022-12-19T04:29:34.090Z,36.80
2022-12-19T04:30:39.032Z,37.10
2022-12-19T04:31:42.187Z,33.95
2022-12-19T04:32:45.210Z,33.83
2022-12-19T04:33:47.761Z,31.77
2022-12-19T04:34:50.284Z,31.58
2022-12-19T04:35:52.815Z,31.23
2022-12-19T04:36:55.442Z,30.25
2022-12-19T04:37:58.016Z,28.27
2022-12-19T04:39:00.376Z,28.05
2022-12-19T04:40:03.259Z,29.13
2022-12-19T04:41:06.043Z,22.17
2022-12-19T04:42:08.416Z,61.22
2022-12-19T04:43:10.920Z,28.95
2022-12-19T04:44:13.728Z,23.10
2022-12-19T04:45:17.379Z,23.13
2022-12-19T04:46:19.766Z,23.50
2022-12-19T04:47:22.179Z,22.73
2022-12-19T04:48:24.969Z,22.42
2022-12-19T04:49:27.885Z,21.42
2022-12-19T04:50:32.230Z,21.70
2022-12-19T04:51:34.588Z,20.55
2022-12-19T04:52:37.004Z,20.85
2022-12-19T04:53:39.423Z,24.80
2022-12-19T04:54:41.745Z,89.50
2022-12-19T04:55:44.242Z,93.72
2022-12-19T04:56:47.313Z,65.82
2022-12-19T04:57:49.809Z,61.22
2022-12-19T04:59:10.385Z,52.72
2022-12-19T05:00:13.970Z,43.50
2022-12-19T05:01:18.435Z,41.20
2022-12-19T05:02:21.012Z,38.85
2022-12-19T05:03:23.730Z,36.25
2022-12-19T05:04:26.726Z,36.55
2022-12-19T05:05:29.972Z,33.35
2022-12-19T05:06:32.681Z,32.80
2022-12-19T05:07:35.236Z,31.83
2022-12-19T05:08:39.829Z,30.60
2022-12-19T05:09:42.272Z,30.50
2022-12-19T05:10:44.731Z,28.73
2022-12-19T05:11:47.276Z,29.42
2022-12-19T05:12:49.633Z,29.75
2022-12-19T05:13:52.125Z,26.98
2022-12-19T05:14:54.602Z,26.08
2022-12-19T05:16:08.675Z,26.95
2022-12-19T05:17:11.163Z,26.70
2022-12-19T05:18:13.539Z,26.00
2022-12-19T05:19:16.870Z,25.42
2022-12-19T05:20:19.328Z,27.42
2022-12-19T05:21:22.681Z,25.25
2022-12-19T05:22:28.139Z,25.27
2022-12-19T05:23:30.783Z,27.33
2022-12-19T05:24:33.647Z,25.58
2022-12-19T05:25:36.040Z,24.77
2022-12-19T05:26:38.403Z,69.13
2022-12-19T05:27:40.845Z,112.82
2022-12-19T05:28:43.300Z,94.28
2022-12-19T05:29:45.719Z,89.32
2022-12-19T05:30:52.269Z,64.18
2022-12-19T05:31:55.063Z,58.22
2022-12-19T05:32:57.407Z,53.60
2022-12-19T05:33:59.717Z,49.20
2022-12-19T05:35:02.071Z,50.53
2022-12-19T05:36:05.031Z,40.08
2022-12-19T05:37:07.332Z,39.30
2022-12-19T05:38:09.758Z,40.08
2022-12-19T05:39:12.226Z,38.13
2022-12-19T05:40:14.754Z,35.22
2022-12-19T05:41:19.372Z,33.40
2022-12-19T05:42:21.694Z,37.30
2022-12-19T05:43:24.460Z,34.25
2022-12-19T05:44:26.784Z,35.33
2022-12-19T05:45:29.742Z,33.28
2022-12-19T05:46:32.337Z,34.45
2022-12-19T05:47:35.173Z,32.38
2022-12-19T05:48:38.014Z,32.25
2022-12-19T05:49:40.363Z,33.10
2022-12-19T05:50:48.009Z,32.58
2022-12-19T05:51:50.339Z,33.95
2022-12-19T05:52:52.679Z,33.55
2022-12-19T05:53:55.140Z,33.33
2022-12-19T05:54:58.404Z,32.72
2022-12-19T05:56:13.266Z,30.83
2022-12-19T05:57:16.737Z,31.95
2022-12-19T05:58:22.518Z,31.10
2022-12-19T06:01:19.025Z,29.60
2022-12-19T06:02:21.522Z,30.80
2022-12-19T06:03:24.090Z,31.92
2022-12-19T06:04:26.412Z,28.58
2022-12-19T06:05:29.311Z,27.42
2022-12-19T06:06:31.993Z,28.40
2022-12-19T06:07:35.356Z,28.55
2022-12-19T06:08:38.091Z,37.97
2022-12-19T06:09:40.356Z,28.90
2022-12-19T06:10:42.671Z,28.73
2022-12-19T06:11:45.009Z,29.80
2022-12-19T06:12:47.298Z,28.77
2022-12-19T06:13:49.814Z,26.00
2022-12-19T06:14:52.179Z,34.15
2022-12-19T06:16:05.585Z,29.42
2022-12-19T06:17:07.940Z,27.15
2022-12-19T06:18:10.258Z,25.42
2022-12-19T06:19:14.826Z,27.55
2022-12-19T06:20:17.899Z,26.77
2022-12-19T06:21:22.590Z,25.83
2022-12-19T06:22:24.918Z,26.00
2022-12-19T06:23:29.639Z,26.50
2022-12-19T06:24:32.166Z,27.65
2022-12-19T06:25:37.779Z,25.50
2022-12-19T06:26:40.704Z,27.38
2022-12-19T06:27:43.134Z,24.63
2022-12-19T06:28:45.474Z,27.13
2022-12-19T06:29:47.786Z,25.85
2022-12-19T06:30:50.132Z,25.92
2022-12-19T06:31:52.900Z,25.50
2022-12-19T06:32:55.914Z,24.98
2022-12-19T06:33:59.027Z,27.00
2022-12-19T06:35:05.038Z,26.00
2022-12-19T06:36:14.292Z,25.92
2022-12-19T06:37:16.790Z,24.67
2022-12-19T06:38:19.116Z,25.60
2022-12-19T06:39:22.354Z,38.05
2022-12-19T06:41:03.162Z,43.05
2022-12-19T06:42:23.840Z,154.10
2022-12-19T06:43:26.472Z,123.22
2022-12-19T06:44:28.762Z,110.65
2022-12-19T06:45:31.520Z,110.30
2022-12-19T06:46:34.460Z,107.80
2022-12-19T06:47:36.882Z,103.07
2022-12-19T06:48:39.218Z,89.38
2022-12-19T06:49:41.548Z,64.20
2022-12-19T06:50:43.847Z,55.28
2022-12-19T06:51:46.542Z,46.10
2022-12-19T06:52:48.934Z,41.28
2022-12-19T06:53:51.737Z,43.53
2022-12-19T06:54:54.009Z,39.72
2022-12-19T06:55:58.482Z,40.53
2022-12-19T06:57:01.330Z,36.92
2022-12-19T06:58:04.204Z,40.30
2022-12-19T06:59:08.109Z,36.67
2022-12-19T07:00:11.342Z,36.95
2022-12-19T07:01:52.775Z,33.47
2022-12-19T07:02:57.355Z,32.13
2022-12-19T07:03:59.880Z,33.67
2022-12-19T07:05:05.822Z,33.05
2022-12-19T07:06:08.451Z,34.70
2022-12-19T07:07:10.853Z,33.33
2022-12-19T07:08:13.651Z,31.10
2022-12-19T07:09:16.268Z,28.40
2022-12-19T07:10:18.816Z,30.58
2022-12-19T07:11:21.212Z,31.27
2022-12-19T07:12:23.538Z,30.42
2022-12-19T07:13:27.366Z,29.20
2022-12-19T07:14:29.782Z,29.02
2022-12-19T07:15:34.909Z,29.95
2022-12-19T07:16:37.417Z,30.20
2022-12-19T07:17:39.883Z,28.60
2022-12-19T07:18:43.425Z,29.33
2022-12-19T07:19:45.811Z,28.92
2022-12-19T07:20:48.213Z,28.00
2022-12-19T07:21:50.586Z,28.83
2022-12-19T07:22:53.146Z,28.55
2022-12-19T07:23:55.867Z,28.00
2022-12-19T07:24:59.408Z,27.58
2022-12-19T07:26:01.920Z,27.35
2022-12-19T07:27:08.149Z,27.45
2022-12-19T07:28:10.643Z,25.90
2022-12-19T07:29:13.900Z,27.10
2022-12-19T07:30:16.236Z,21.27
2022-12-19T07:31:18.592Z,89.13
2022-12-19T07:32:21.762Z,25.58
2022-12-19T07:33:24.102Z,27.48
2022-12-19T07:34:26.502Z,27.00
2022-12-19T07:35:28.838Z,25.17
2022-12-19T07:36:31.390Z,24.92
2022-12-19T07:37:33.999Z,23.15
2022-12-19T07:38:36.902Z,22.70
2022-12-19T07:39:39.243Z,23.65
2022-12-19T07:40:41.824Z,24.48
2022-12-19T07:41:44.156Z,23.42
2022-12-19T07:42:46.506Z,27.35
2022-12-19T07:43:49.200Z,26.45
2022-12-19T07:44:51.544Z,27.92
2022-12-19T07:45:55.396Z,27.25
2022-12-19T07:46:57.785Z,25.33
2022-12-19T07:48:01.507Z,27.38
2022-12-19T07:49:03.845Z,27.77
2022-12-19T07:50:06.546Z,25.15
2022-12-19T07:51:08.862Z,27.60
2022-12-19T07:52:11.217Z,28.08
2022-12-19T07:53:13.535Z,27.70
2022-12-19T07:54:15.875Z,26.10
2022-12-19T07:55:18.189Z,24.88
2022-12-19T07:56:20.569Z,26.90
2022-12-19T07:57:23.045Z,26.73
2022-12-19T07:58:27.850Z,25.90
2022-12-19T07:59:35.637Z,23.15
2022-12-19T08:00:41.397Z,26.95
2022-12-19T08:01:43.766Z,26.33
2022-12-19T08:02:46.739Z,24.83
2022-12-19T08:03:49.076Z,24.77
2022-12-19T08:04:51.496Z,24.23
2022-12-19T08:05:58.736Z,24.40
2022-12-19T08:07:02.302Z,23.88
2022-12-19T08:08:04.838Z,22.45
2022-12-19T08:09:07.126Z,24.48
2022-12-19T08:10:11.489Z,24.75
2022-12-19T08:11:17.415Z,25.27
2022-12-19T08:12:19.955Z,24.00
2022-12-19T08:13:22.428Z,24.58
2022-12-19T08:14:25.059Z,22.27
2022-12-19T08:15:27.407Z,21.67
2022-12-19T08:16:29.873Z,116.43
2022-12-19T08:17:32.479Z,129.52
2022-12-19T08:18:34.905Z,60.42
2022-12-19T08:19:37.265Z,52.22
2022-12-19T08:20:39.617Z,69.40
2022-12-19T08:21:41.949Z,61.58
2022-12-19T08:22:44.577Z,41.90
2022-12-19T08:23:47.053Z,42.17
2022-12-19T08:24:49.430Z,33.97
2022-12-19T08:26:10.451Z,31.33
2022-12-19T08:27:12.808Z,33.78
2022-12-19T08:28:15.473Z,29.67
2022-12-19T08:29:17.943Z,31.27
2022-12-19T08:30:20.326Z,29.98
2022-12-19T08:31:25.077Z,29.83
2022-12-19T08:32:29.063Z,28.90
2022-12-19T08:33:31.725Z,29.55
2022-12-19T08:34:34.140Z,27.90
2022-12-19T08:35:37.469Z,26.48
2022-12-19T08:36:39.825Z,27.52
2022-12-19T08:37:42.339Z,27.92
2022-12-19T08:38:45.174Z,26.50
2022-12-19T08:39:47.706Z,26.75
2022-12-19T08:40:54.538Z,26.25
2022-12-19T08:41:57.031Z,25.73
2022-12-19T08:42:59.471Z,25.45
2022-12-19T08:44:02.193Z,25.27
2022-12-19T08:45:05.428Z,23.70
2022-12-19T08:46:09.261Z,25.67
2022-12-19T08:47:11.758Z,25.05
2022-12-19T08:48:14.156Z,23.70
2022-12-19T08:49:16.681Z,82.55
2022-12-19T08:50:19.114Z,59.17
2022-12-19T08:51:21.483Z,32.00
2022-12-19T08:52:24.629Z,34.22
2022-12-19T08:53:28.666Z,36.13
2022-12-19T08:54:31.030Z,39.05
2022-12-19T08:55:35.617Z,32.47
2022-12-19T08:56:38.393Z,35.33
2022-12-19T08:57:48.236Z,33.05
2022-12-19T08:58:53.622Z,35.60
2022-12-19T08:59:55.941Z,35.90
2022-12-19T09:01:05.289Z,34.88
2022-12-19T09:02:10.782Z,34.13
2022-12-19T09:03:13.501Z,31.92
2022-12-19T09:05:26.055Z,32.30
2022-12-19T09:06:05.461Z,31.85
2022-12-19T09:07:01.818Z,32.78
2022-12-19T09:08:04.614Z,31.60
2022-12-19T09:09:07.195Z,30.85
2022-12-19T09:10:09.662Z,32.30
2022-12-19T09:11:14.410Z,30.77
2022-12-19T09:12:16.867Z,28.05
2022-12-19T09:13:19.265Z,19.13
2022-12-19T09:14:21.786Z,28.05
2022-12-19T09:15:24.535Z,47.35
2022-12-19T09:16:28.382Z,41.17
2022-12-19T09:17:30.757Z,41.30
2022-12-19T09:18:34.677Z,35.80
2022-12-19T09:19:37.170Z,30.38
2022-12-19T09:20:40.097Z,27.92
2022-12-19T09:21:42.629Z,25.35
2022-12-19T09:22:45.017Z,27.05
2022-12-19T09:23:52.984Z,27.85
2022-12-19T09:24:55.366Z,28.27
2022-12-19T09:26:09.556Z,28.25
2022-12-19T09:27:12.032Z,26.10
2022-12-19T09:28:29.707Z,23.88
2022-12-19T09:29:35.335Z,23.20
2022-12-19T09:30:38.407Z,25.05
2022-12-19T09:31:41.136Z,24.95
2022-12-19T09:32:43.921Z,24.35
2022-12-19T09:33:47.327Z,25.35
2022-12-19T09:34:49.787Z,24.00
2022-12-19T09:35:53.142Z,24.23
2022-12-19T09:36:59.092Z,24.15
2022-12-19T09:38:01.749Z,24.40
2022-12-19T09:39:04.287Z,24.98
2022-12-19T09:40:07.459Z,23.77
2022-12-19T09:41:31.787Z,23.45
2022-12-19T09:42:57.855Z,22.13
2022-12-19T09:44:21.850Z,23.00
2022-12-19T09:45:42.691Z,21.67
2022-12-19T09:46:52.006Z,23.00
2022-12-19T09:47:57.633Z,22.55
2022-12-19T09:49:01.864Z,21.83
2022-12-19T09:50:31.363Z,20.58
2022-12-19T09:51:58.729Z,21.75
2022-12-19T09:53:15.836Z,21.17
2022-12-19T09:54:24.747Z,20.23
2022-12-19T09:55:41.037Z,21.65
2022-12-19T09:56:46.034Z,22.55
2022-12-19T09:58:01.229Z,22.10
2022-12-19T09:59:47.939Z,21.38
2022-12-19T10:01:00.027Z,20.27
2022-12-19T10:02:24.703Z,20.42
2022-12-19T10:03:40.781Z,21.65
2022-12-19T10:04:51.684Z,18.95
2022-12-19T10:07:11.503Z,19.92
2022-12-19T10:07:59.654Z,20.63
2022-12-19T10:10:34.025Z,17.27
2022-12-19T10:12:40.083Z,15.23
2022-12-19T10:12:42.887Z,24.85
2022-12-19T10:14:16.261Z,21.85
2022-12-19T10:15:35.687Z,39.10
2022-12-19T10:17:22.137Z,49.10
2022-12-19T10:18:24.601Z,25.10
2022-12-19T10:19:31.568Z,21.98
2022-12-19T10:20:48.405Z,22.10
2022-12-19T10:22:19.539Z,22.15
2022-12-19T10:23:30.863Z,21.23
2022-12-19T10:25:08.062Z,20.58
2022-12-19T10:26:20.666Z,19.77
2022-12-19T10:27:59.559Z,22.48
2022-12-19T10:29:47.120Z,20.83
2022-12-19T10:31:11.466Z,21.00
2022-12-19T10:32:24.169Z,20.40
2022-12-19T10:33:34.542Z,20.27
2022-12-19T10:34:43.305Z,20.58
2022-12-19T10:35:49.235Z,20.58
2022-12-19T10:37:28.866Z,18.60
2022-12-19T10:38:39.789Z,19.13
2022-12-19T10:40:24.767Z,18.88
2022-12-19T10:41:32.527Z,18.30
2022-12-19T10:42:38.243Z,18.80
2022-12-19T10:43:57.423Z,19.60
2022-12-19T10:45:04.570Z,17.75
2022-12-19T10:46:37.156Z,15.77
2022-12-19T10:47:41.047Z,18.77
2022-12-19T10:48:43.401Z,16.05
2022-12-19T10:49:45.779Z,18.45
2022-12-19T10:50:49.237Z,17.42
2022-12-19T10:52:00.369Z,18.50
2022-12-19T10:53:07.662Z,18.45
2022-12-19T10:54:10.126Z,18.13
2022-12-19T10:55:31.442Z,17.77
2022-12-19T10:56:37.703Z,17.48
2022-12-19T10:57:40.574Z,17.00
2022-12-19T10:58:45.742Z,18.75
2022-12-19T11:00:04.776Z,18.90
2022-12-19T11:01:40.077Z,16.80
2022-12-19T11:02:48.292Z,17.40
2022-12-19T11:04:22.645Z,17.20
2022-12-19T11:05:40.129Z,15.80
2022-12-19T11:06:49.880Z,16.90
2022-12-19T11:08:02.509Z,16.33
2022-12-19T11:09:24.995Z,17.67
2022-12-19T11:13:14.807Z,16.77
2022-12-19T11:15:50.441Z,16.90
2022-12-19T11:18:08.686Z,17.02
2022-12-19T11:19:13.501Z,16.35
2022-12-19T11:23:22.252Z,15.77
2022-12-19T11:24:30.616Z,14.05
2022-12-19T11:29:19.252Z,14.77
2022-12-19T11:29:27.343Z,16.23
2022-12-19T11:29:30.746Z,15.60
2022-12-19T11:29:31.732Z,15.23
2022-12-19T11:30:05.572Z,17.15
2022-12-19T11:30:40.813Z,15.68
2022-12-19T11:30:43.171Z,15.63
2022-12-19T11:32:50.476Z,16.65
2022-12-19T11:34:05.260Z,14.38
2022-12-19T11:35:22.004Z,15.43
2022-12-19T11:36:34.819Z,15.27
2022-12-19T11:37:44.358Z,16.50
2022-12-19T11:38:53.309Z,15.65
2022-12-19T11:40:01.849Z,15.68
2022-12-19T11:41:12.939Z,16.67
2022-12-19T11:42:24.840Z,15.70
2022-12-19T11:43:53.297Z,16.00
2022-12-19T11:45:02.802Z,14.80
2022-12-19T11:46:16.211Z,15.15
2022-12-19T11:47:40.427Z,15.27
2022-12-19T11:48:55.075Z,14.85
2022-12-19T11:50:11.172Z,14.95
2022-12-19T11:51:28.784Z,14.35
2022-12-19T11:53:05.859Z,14.82
2022-12-19T11:54:24.017Z,15.68
2022-12-19T11:55:33.048Z,15.18
2022-12-19T11:56:35.566Z,14.68
2022-12-19T11:57:39.524Z,14.88
2022-12-19T11:58:52.703Z,15.00
2022-12-19T11:59:59.825Z,14.85
2022-12-19T12:01:34.191Z,14.68
2022-12-19T12:03:10.193Z,14.35
2022-12-19T12:04:27.071Z,14.25
2022-12-19T12:05:43.662Z,14.68
2022-12-19T12:06:54.203Z,13.15
2022-12-19T12:08:49.414Z,14.40
2022-12-19T12:13:47.739Z,13.95
2022-12-19T12:15:56.099Z,14.07
2022-12-19T12:20:12.824Z,13.75
2022-12-19T12:20:22.790Z,13.85
2022-12-19T12:23:06.662Z,14.52
2022-12-19T12:30:43.379Z,14.52
2022-12-19T12:31:13.895Z,12.95
2022-12-19T12:31:20.455Z,13.25
2022-12-19T12:31:32.466Z,12.43
2022-12-19T12:31:49.684Z,13.73
2022-12-19T12:31:50.279Z,14.00
2022-12-19T12:31:55.326Z,13.25
2022-12-19T12:32:03.368Z,13.77
2022-12-19T12:35:50.035Z,13.55
2022-12-19T12:35:52.125Z,12.45
2022-12-19T12:35:54.548Z,13.10
2022-12-19T12:38:19.049Z,13.15
2022-12-19T12:39:24.313Z,12.35
2022-12-19T12:41:14.478Z,13.80
2022-12-19T12:42:47.574Z,11.02
2022-12-19T12:43:58.739Z,12.82
2022-12-19T12:45:13.186Z,10.75
2022-12-19T12:46:31.023Z,10.38
2022-12-19T12:47:33.583Z,11.25
2022-12-19T12:48:39.101Z,11.95
2022-12-19T12:49:45.307Z,12.57
2022-12-19T12:50:54.967Z,11.18
2022-12-19T12:52:00.479Z,12.32
2022-12-19T12:53:09.219Z,12.55
2022-12-19T12:54:14.840Z,11.52
2022-12-19T12:55:25.875Z,11.10
2022-12-19T12:56:28.888Z,11.73
2022-12-19T12:57:37.290Z,12.27
2022-12-19T12:58:43.874Z,10.57
2022-12-19T12:59:47.941Z,11.38
2022-12-19T13:01:17.517Z,11.68
2022-12-19T13:02:25.259Z,11.20
2022-12-19T13:03:29.350Z,10.73
2022-12-19T13:04:35.371Z,11.13
2022-12-19T13:05:43.470Z,9.32
2022-12-19T13:06:51.460Z,11.18
2022-12-19T13:07:55.118Z,10.48
2022-12-19T13:09:09.609Z,18.38
2022-12-19T13:10:17.206Z,46.25
2022-12-19T13:11:38.301Z,38.85
2022-12-19T13:13:15.822Z,21.50
2022-12-19T13:14:39.184Z,15.00
2022-12-19T13:15:44.261Z,13.80
2022-12-19T13:16:50.173Z,13.63
2022-12-19T13:17:52.755Z,13.57
2022-12-19T13:19:19.708Z,15.32
2022-12-19T13:20:26.570Z,13.77
2022-12-19T13:22:05.396Z,14.43
2022-12-19T13:23:22.737Z,13.57
2022-12-19T13:24:25.082Z,13.88
2022-12-19T13:25:47.584Z,14.15
2022-12-19T13:26:52.249Z,12.73
2022-12-19T13:28:01.762Z,15.52
2022-12-19T13:29:30.852Z,15.00
2022-12-19T13:31:13.534Z,13.23
2022-12-19T13:32:11.463Z,14.32
2022-12-19T13:33:15.555Z,11.70
2022-12-19T13:34:19.315Z,13.05
2022-12-19T13:36:25.215Z,12.82
2022-12-19T13:39:56.638Z,13.52
2022-12-19T13:40:01.457Z,12.70
2022-12-19T13:40:33.222Z,12.05
2022-12-19T13:42:00.972Z,10.75
2022-12-19T13:43:42.529Z,13.85
2022-12-19T13:44:45.067Z,22.17
2022-12-19T13:45:59.512Z,38.60
2022-12-19T13:47:02.533Z,32.85
2022-12-19T13:48:05.565Z,78.72
2022-12-19T13:49:25.030Z,56.10
2022-12-19T13:50:38.037Z,31.70
2022-12-19T13:51:47.948Z,22.45
2022-12-19T13:52:53.662Z,16.13
2022-12-19T13:53:59.817Z,15.98
2022-12-19T13:55:03.286Z,14.32
2022-12-19T13:56:11.377Z,12.65
2022-12-19T13:57:30.341Z,12.45
2022-12-19T13:58:40.124Z,13.40
2022-12-19T13:59:59.659Z,12.13
2022-12-19T14:01:20.776Z,11.30
2022-12-19T14:02:44.174Z,12.50
2022-12-19T14:03:49.332Z,9.95
2022-12-19T14:04:52.047Z,10.63
2022-12-19T14:06:16.663Z,10.50
2022-12-19T14:07:39.261Z,9.68
2022-12-19T14:08:45.412Z,9.30
2022-12-19T14:11:33.790Z,11.27
2022-12-19T14:11:42.086Z,10.07
2022-12-19T14:13:57.268Z,8.93
2022-12-19T14:14:42.373Z,8.77
2022-12-19T14:15:52.225Z,9.30
2022-12-19T14:16:55.867Z,9.27
2022-12-19T14:18:44.565Z,10.35
2022-12-19T14:19:52.170Z,9.38
2022-12-19T14:22:04.748Z,8.82
2022-12-19T14:22:36.200Z,9.67
2022-12-19T14:23:43.905Z,9.55
2022-12-19T14:25:32.087Z,9.52
2022-12-19T14:28:19.921Z,9.20
2022-12-19T14:28:25.154Z,8.95
2022-12-19T14:30:28.572Z,8.63
2022-12-19T14:31:02.438Z,9.30
2022-12-19T14:32:41.993Z,10.40
2022-12-19T14:33:59.104Z,10.15
2022-12-19T14:36:10.440Z,9.25
2022-12-19T14:36:33.132Z,9.93
2022-12-19T14:38:37.383Z,8.90
2022-12-19T14:39:25.134Z,9.73
2022-12-19T14:40:32.910Z,10.20
2022-12-19T14:43:30.233Z,9.15
2022-12-19T14:43:58.049Z,8.60
2022-12-19T14:52:35.934Z,8.88
2022-12-19T14:54:15.600Z,8.25
2022-12-19T14:54:15.968Z,8.68
2022-12-19T14:54:21.093Z,9.52
2022-12-19T14:54:28.081Z,9.55
2022-12-19T14:54:34.887Z,11.82
2022-12-19T14:56:08.173Z,11.82
2022-12-19T14:56:59.610Z,23.80
2022-12-19T14:58:54.942Z,27.08
2022-12-19T14:59:48.567Z,14.73
2022-12-19T15:01:10.624Z,14.10
2022-12-19T15:02:27.959Z,13.30
2022-12-19T15:04:51.294Z,12.77
2022-12-19T15:05:18.862Z,10.70
2022-12-19T15:07:07.385Z,10.90
2022-12-19T15:07:51.796Z,11.77
2022-12-19T15:11:00.328Z,10.63
2022-12-19T15:11:07.500Z,10.52
2022-12-19T15:14:03.952Z,9.40
2022-12-19T15:14:56.395Z,9.60
2022-12-19T15:15:58.802Z,10.52
2022-12-19T15:17:31.815Z,10.05
2022-12-19T15:18:34.241Z,9.82
2022-12-19T15:19:36.696Z,10.32